Bay Terrace, New York
Current Conditions -  °F | °C
As of 5:51 PM on Sunday 21 Dec 2014 (Local Time) from KLGA Reporting Station
Overcast Overcast  
Wind Chill: -2°   Ceiling: 1900
Heat Index:   Visibility: 9mi
Dew Point: -2°   Wind: 9mph
Humidity: 78%   Direction: 360°N
Pressure: 30.31"   Gusts: NA
Location:  40.7825°N, 73.7809°W
Report Text: KLGA 212251Z 36008KT 9SM OVC019 02/M02 A3031 RMK AO2 SLP263 T00171017
Loading
Personal Weather Stations






























Interactive Weather Map New forecast layout! Learn more

10-Day Weather Forecast

Advertisements
Track Severe Weather on mobile